Terminal Aerodrome Forecast
Issued by NWS

Home | Current Version | Previous Version | Text Only | Print | Product List | Glossary On
Versions: 1 2 3 4 5 6 7 8 9 10 11 12 13 14 15 16 17 18
000
FTUS41 KBTV 251129
TAFMPV
TAF
KMPV 251129Z 2512/2612 24014G32KT P6SM -SHRA SCT025 BKN045
     FM251600 25018G34KT P6SM VCSH SCT030 OVC050
     FM252100 26015G30KT P6SM SCT020 BKN035
     FM260300 28012KT P6SM SCT012 OVC035=

USA.gov is the U.S. government's official web portal to all federal, state and local government web resources and services.